createdAt,value
2019-02-07T00:01:13.905Z,92273.15
2019-02-07T00:04:03.626Z,92273.53
2019-02-07T00:06:54.644Z,92269.36
2019-02-07T00:09:44.594Z,92257.22
2019-02-07T00:12:34.089Z,92258.95
2019-02-07T00:15:23.800Z,92261.48
2019-02-07T00:18:13.147Z,92267.42
2019-02-07T00:21:02.593Z,92266.60
2019-02-07T00:23:51.939Z,92259.66
2019-02-07T00:26:41.485Z,92255.19
2019-02-07T00:29:30.855Z,92255.14
2019-02-07T00:32:21.217Z,92264.30
2019-02-07T00:35:11.575Z,92265.00
2019-02-07T00:38:01.767Z,92266.12
2019-02-07T00:40:51.026Z,92266.44
2019-02-07T00:43:40.226Z,92266.63
2019-02-07T00:46:29.595Z,92262.68
2019-02-07T00:49:19.912Z,92272.34
2019-02-07T00:52:09.439Z,92275.84
2019-02-07T00:54:59.035Z,92259.84
2019-02-07T00:57:48.479Z,92258.38
2019-02-07T01:00:39.223Z,92269.58
2019-02-07T01:03:29.517Z,92270.45
2019-02-07T01:06:19.061Z,92275.07
2019-02-07T01:09:10.307Z,92270.96
2019-02-07T01:11:59.349Z,92272.37
2019-02-07T01:14:48.971Z,92270.91
2019-02-07T01:17:38.453Z,92265.31
2019-02-07T01:20:28.136Z,92271.47
2019-02-07T01:23:18.010Z,92268.48
2019-02-07T01:26:06.939Z,92269.27
2019-02-07T01:28:56.800Z,92269.77
2019-02-07T01:31:46.726Z,92266.44
2019-02-07T01:34:35.770Z,92268.62
2019-02-07T01:37:25.605Z,92266.61
2019-02-07T01:40:18.447Z,92267.43
2019-02-07T01:43:08.044Z,92267.96
2019-02-07T01:45:56.992Z,92276.56
2019-02-07T01:48:46.871Z,92272.18
2019-02-07T01:51:36.245Z,92272.13
2019-02-07T01:54:25.800Z,92276.22
2019-02-07T01:57:15.485Z,92272.73
2019-02-07T02:00:09.540Z,92273.48
2019-02-07T02:02:58.762Z,92266.10
2019-02-07T02:05:48.784Z,92266.53
2019-02-07T02:08:38.648Z,92262.99
2019-02-07T02:11:28.283Z,92263.81
2019-02-07T02:14:18.568Z,92262.03
2019-02-07T02:17:08.286Z,92266.21
2019-02-07T02:19:57.431Z,92272.17
2019-02-07T02:22:46.910Z,92270.80
2019-02-07T02:25:35.863Z,92270.63
2019-02-07T02:28:25.346Z,92264.27
2019-02-07T02:31:15.106Z,92266.48
2019-02-07T02:34:04.697Z,92269.50
2019-02-07T02:36:54.239Z,92269.02
2019-02-07T02:39:43.631Z,92270.95
2019-02-07T02:42:34.745Z,92272.73
2019-02-07T02:45:36.623Z,92269.00
2019-02-07T02:48:16.218Z,92272.06
2019-02-07T02:51:06.168Z,92268.41
2019-02-07T02:53:57.193Z,92279.28
2019-02-07T02:56:46.643Z,92275.61
2019-02-07T02:59:36.221Z,92277.98
2019-02-07T03:02:40.577Z,92279.81
2019-02-07T03:05:49.507Z,92278.80
2019-02-07T03:08:52.727Z,92277.80
2019-02-07T03:12:04.172Z,92279.11
2019-02-07T03:15:15.184Z,92276.35
2019-02-07T03:18:22.186Z,92276.27
2019-02-07T03:21:29.754Z,92278.80
2019-02-07T03:24:39.133Z,92276.88
2019-02-07T03:28:07.833Z,92273.11
2019-02-07T03:31:15.749Z,92275.28
2019-02-07T03:34:30.810Z,92271.11
2019-02-07T03:37:35.916Z,92269.33
2019-02-07T03:40:43.099Z,92277.45
2019-02-07T03:43:50.432Z,92274.61
2019-02-07T03:47:02.004Z,92272.38
2019-02-07T03:50:05.077Z,92272.53
2019-02-07T03:53:12.549Z,92273.75
2019-02-07T03:56:31.856Z,92274.66
2019-02-07T03:59:42.532Z,92270.70
2019-02-07T04:03:03.751Z,92267.45
2019-02-07T04:06:14.517Z,92264.10
2019-02-07T04:09:17.723Z,92266.61
2019-02-07T04:12:38.617Z,92260.74
2019-02-07T04:15:58.700Z,92265.17
2019-02-07T04:19:06.983Z,92267.50
2019-02-07T04:22:15.462Z,92272.34
2019-02-07T04:25:33.079Z,92273.74
2019-02-07T04:28:45.451Z,92280.56
2019-02-07T04:32:12.883Z,92287.08
2019-02-07T04:35:25.368Z,92280.61
2019-02-07T04:38:49.315Z,92282.86
2019-02-07T04:42:20.598Z,92285.05
2019-02-07T04:45:29.237Z,92284.08
2019-02-07T04:48:28.544Z,92286.78
2019-02-07T04:51:29.381Z,92284.92
2019-02-07T04:54:52.037Z,92281.78
2019-02-07T04:58:02.588Z,92285.91
2019-02-07T05:01:15.746Z,92286.33
2019-02-07T05:04:27.907Z,92277.95
2019-02-07T05:07:38.983Z,92283.78
2019-02-07T05:10:46.172Z,92284.10
2019-02-07T05:13:53.007Z,92282.80
2019-02-07T05:16:54.207Z,92280.70
2019-02-07T05:20:02.641Z,92274.17
2019-02-07T05:23:21.088Z,92281.05
2019-02-07T05:26:20.746Z,92275.50
2019-02-07T05:29:41.755Z,92276.30
2019-02-07T05:32:54.497Z,92288.30
2019-02-07T05:36:01.570Z,92285.78
2019-02-07T05:39:13.153Z,92283.63
2019-02-07T05:42:30.579Z,92287.70
2019-02-07T05:45:39.412Z,92282.44
2019-02-07T05:48:47.041Z,92280.73
2019-02-07T05:52:02.190Z,92284.71
2019-02-07T05:55:16.524Z,92279.45
2019-02-07T05:58:24.650Z,92289.11
2019-02-07T06:01:31.636Z,92289.08
2019-02-07T06:04:39.018Z,92292.91
2019-02-07T06:07:47.115Z,92286.16
2019-02-07T06:11:11.283Z,92291.84
2019-02-07T06:14:09.088Z,92293.73
2019-02-07T06:17:23.385Z,92293.98
2019-02-07T06:20:30.014Z,92296.89
2019-02-07T06:23:46.893Z,92299.34
2019-02-07T06:26:58.216Z,92293.25
2019-02-07T06:29:55.389Z,92291.89
2019-02-07T06:33:02.723Z,92297.05
2019-02-07T06:36:04.979Z,92301.63
2019-02-07T06:39:08.647Z,92298.06
2019-02-07T06:42:16.295Z,92295.80
2019-02-07T06:45:23.231Z,92294.42
2019-02-07T06:48:34.287Z,92285.42
2019-02-07T06:51:45.877Z,92294.10
2019-02-07T06:54:50.833Z,92294.07
2019-02-07T06:57:57.568Z,92291.87
2019-02-07T07:01:08.919Z,92293.84
2019-02-07T07:04:20.021Z,92293.23
2019-02-07T07:07:30.632Z,92295.33
2019-02-07T07:10:45.143Z,92296.20
2019-02-07T07:13:53.094Z,92299.70
2019-02-07T07:17:02.134Z,92307.72
2019-02-07T07:20:20.392Z,92325.03
2019-02-07T07:23:36.012Z,92340.48
2019-02-07T07:27:02.777Z,92336.12
2019-02-07T07:30:10.017Z,92329.99
2019-02-07T07:33:14.316Z,92334.11
2019-02-07T07:36:21.389Z,92332.58
2019-02-07T07:39:39.388Z,92339.63
2019-02-07T07:42:42.295Z,92344.41
2019-02-07T07:45:43.237Z,92348.83
2019-02-07T07:48:50.529Z,92351.98
2019-02-07T07:51:58.006Z,92353.16
2019-02-07T07:55:09.710Z,92342.89
2019-02-07T07:58:20.275Z,92343.20
2019-02-07T08:01:37.408Z,92349.98
2019-02-07T08:04:54.991Z,92349.25
2019-02-07T08:08:09.228Z,92337.80
2019-02-07T08:11:32.642Z,92343.71
2019-02-07T08:14:39.643Z,92346.11
2019-02-07T08:17:47.829Z,92345.50
2019-02-07T08:20:55.548Z,92350.94
2019-02-07T08:24:03.568Z,92341.17
2019-02-07T08:27:10.644Z,92348.50
2019-02-07T08:30:16.474Z,92360.98
2019-02-07T08:33:28.539Z,92361.34
2019-02-07T08:36:42.320Z,92352.31
2019-02-07T08:39:43.441Z,92357.05
2019-02-07T08:42:50.693Z,92354.20
2019-02-07T08:45:57.632Z,92355.09
2019-02-07T08:49:12.443Z,92355.58
2019-02-07T08:52:21.725Z,92351.09
2019-02-07T08:55:48.731Z,92349.86
2019-02-07T08:58:51.368Z,92341.13
2019-02-07T09:02:12.686Z,92338.86
2019-02-07T09:05:33.270Z,92341.27
2019-02-07T09:08:32.027Z,92326.78
2019-02-07T09:11:40.603Z,92335.59
2019-02-07T09:14:56.769Z,92326.98
2019-02-07T09:18:11.366Z,92317.72
2019-02-07T09:21:11.503Z,92323.97
2019-02-07T09:24:26.782Z,92328.22
2019-02-07T09:27:38.419Z,92324.64
2019-02-07T09:30:44.645Z,92320.53
2019-02-07T09:33:53.034Z,92324.16
2019-02-07T09:37:03.977Z,92322.34
2019-02-07T09:40:03.632Z,92314.49
2019-02-07T09:43:15.429Z,92310.74
2019-02-07T09:46:32.834Z,92313.94
2019-02-07T09:49:32.598Z,92313.31
2019-02-07T09:52:36.963Z,92309.61
2019-02-07T09:55:34.683Z,92309.33
2019-02-07T09:58:41.984Z,92305.19
2019-02-07T10:01:53.078Z,92307.59
2019-02-07T10:04:55.707Z,92310.02
2019-02-07T10:08:14.199Z,92299.49
2019-02-07T10:11:32.644Z,92297.89
2019-02-07T10:14:41.063Z,92294.94
2019-02-07T10:17:58.612Z,92292.23
2019-02-07T10:21:13.260Z,92286.02
2019-02-07T10:24:33.627Z,92284.98
2019-02-07T10:27:41.423Z,92276.28
2019-02-07T10:30:44.550Z,92274.25
2019-02-07T10:33:53.207Z,92267.59
2019-02-07T10:37:07.653Z,92269.30
2019-02-07T10:40:14.171Z,92260.27
2019-02-07T10:43:27.556Z,92252.08
2019-02-07T10:46:34.832Z,92254.08
2019-02-07T10:49:44.764Z,92245.33
2019-02-07T10:53:00.348Z,92239.36
2019-02-07T10:56:08.984Z,92231.34
2019-02-07T10:59:17.149Z,92235.70
2019-02-07T11:02:29.418Z,92237.69
2019-02-07T11:05:35.975Z,92232.34
2019-02-07T11:08:44.704Z,92231.00
2019-02-07T11:11:51.643Z,92223.06
2019-02-07T11:15:03.217Z,92214.59
2019-02-07T11:18:14.900Z,92213.38
2019-02-07T11:21:25.487Z,92209.39
2019-02-07T11:24:36.475Z,92202.23
2019-02-07T11:27:34.404Z,92202.11
2019-02-07T11:30:36.045Z,92197.98
2019-02-07T11:33:42.170Z,92196.56
2019-02-07T11:36:56.338Z,92187.45
2019-02-07T11:40:12.480Z,92187.84
2019-02-07T11:43:24.090Z,92183.36
2019-02-07T11:46:44.441Z,92180.91
2019-02-07T11:49:52.226Z,92179.73
2019-02-07T11:52:54.253Z,92183.03
2019-02-07T11:56:10.066Z,92184.05
2019-02-07T11:59:13.544Z,92184.56
2019-02-07T12:02:20.531Z,92176.80
2019-02-07T12:05:35.681Z,92168.23
2019-02-07T12:08:46.964Z,92166.44
2019-02-07T12:11:53.329Z,92162.86
2019-02-07T12:15:04.681Z,92156.08
2019-02-07T12:18:25.510Z,92152.35
2019-02-07T12:21:39.717Z,92154.41
2019-02-07T12:24:59.948Z,92153.89
2019-02-07T12:28:08.594Z,92157.79
2019-02-07T12:31:15.766Z,92144.14
2019-02-07T12:34:19.092Z,92150.30
2019-02-07T12:37:34.399Z,92149.17
2019-02-07T12:40:41.828Z,92158.84
2019-02-07T12:43:56.379Z,92156.33
2019-02-07T12:47:07.601Z,92153.61
2019-02-07T12:50:14.224Z,92160.32
2019-02-07T12:53:21.800Z,92160.17
2019-02-07T12:56:28.863Z,92156.12
2019-02-07T12:59:44.508Z,92155.14
2019-02-07T13:03:11.088Z,92159.00
2019-02-07T13:06:20.469Z,92155.51
2019-02-07T13:09:40.356Z,92154.86
2019-02-07T13:12:43.754Z,92158.19
2019-02-07T13:16:09.943Z,92157.19
2019-02-07T13:19:17.888Z,92156.94
2019-02-07T13:22:10.614Z,92152.58
2019-02-07T13:25:04.828Z,92157.68
2019-02-07T13:27:52.977Z,92155.45
2019-02-07T13:30:57.578Z,92152.95
2019-02-07T13:33:46.300Z,92159.19
2019-02-07T13:36:35.305Z,92161.41
2019-02-07T13:39:27.735Z,92150.00
2019-02-07T13:42:16.845Z,92151.87
2019-02-07T13:45:18.857Z,92149.53
2019-02-07T13:48:07.884Z,92153.73
2019-02-07T13:50:57.094Z,92158.00
2019-02-07T13:53:50.561Z,92158.06
2019-02-07T13:56:55.848Z,92157.03
2019-02-07T13:59:57.693Z,92154.53
2019-02-07T14:03:05.726Z,92164.08
2019-02-07T14:06:07.589Z,92156.52
2019-02-07T14:08:48.098Z,92157.56
2019-02-07T14:11:47.633Z,92157.39
2019-02-07T14:14:32.392Z,92152.56
2019-02-07T14:17:20.335Z,92155.08
2019-02-07T14:20:13.947Z,92157.13
2019-02-07T14:23:13.468Z,92158.13
2019-02-07T14:26:06.229Z,92159.73
2019-02-07T14:29:00.612Z,92161.16
2019-02-07T14:31:49.501Z,92156.41
2019-02-07T14:34:39.419Z,92157.94
2019-02-07T14:37:23.945Z,92153.40
2019-02-07T14:40:13.081Z,92155.98
2019-02-07T14:43:22.307Z,92156.59
2019-02-07T14:46:15.257Z,92154.74
2019-02-07T14:48:47.148Z,92152.88
2019-02-07T14:51:19.157Z,92153.23
2019-02-07T14:53:51.097Z,92153.78
2019-02-07T14:56:22.446Z,92159.61
2019-02-07T14:58:53.735Z,92158.98
2019-02-07T15:01:24.873Z,92156.64
2019-02-07T15:03:56.800Z,92160.61
2019-02-07T15:06:28.342Z,92158.78
2019-02-07T15:08:59.461Z,92159.78
2019-02-07T15:11:31.576Z,92153.08
2019-02-07T15:14:02.690Z,92164.25
2019-02-07T15:16:34.250Z,92161.20
2019-02-07T15:19:05.265Z,92162.14
2019-02-07T15:21:36.708Z,92160.53
2019-02-07T15:24:09.355Z,92156.27
2019-02-07T15:26:40.492Z,92159.21
2019-02-07T15:29:12.293Z,92162.84
2019-02-07T15:31:43.318Z,92161.70
2019-02-07T15:34:14.443Z,92164.98
2019-02-07T15:36:48.658Z,92157.51
2019-02-07T15:39:21.822Z,92158.37
2019-02-07T15:41:54.604Z,92159.00
2019-02-07T15:44:25.716Z,92162.18
2019-02-07T15:46:57.096Z,92163.36
2019-02-07T15:49:34.570Z,92166.30
2019-02-07T15:52:06.036Z,92166.01
2019-02-07T15:54:38.284Z,92157.42
2019-02-07T15:57:09.352Z,92164.78
2019-02-07T15:59:59.351Z,92161.14
2019-02-07T16:02:49.331Z,92153.37
2019-02-07T16:05:21.026Z,92161.95
2019-02-07T16:07:52.341Z,92162.09
2019-02-07T16:10:24.463Z,92156.63
2019-02-07T16:12:56.751Z,92153.28
2019-02-07T16:15:28.703Z,92161.02
2019-02-07T16:18:02.626Z,92159.61
2019-02-07T16:20:35.579Z,92160.63
2019-02-07T16:23:07.337Z,92161.39
2019-02-07T16:25:42.541Z,92168.59
2019-02-07T16:28:14.109Z,92170.34
2019-02-07T16:30:45.780Z,92173.95
2019-02-07T16:33:22.658Z,92172.52
2019-02-07T16:35:54.363Z,92172.53
2019-02-07T16:38:25.657Z,92176.61
2019-02-07T16:40:57.019Z,92181.71
2019-02-07T16:43:28.652Z,92183.75
2019-02-07T16:46:00.178Z,92183.47
2019-02-07T16:48:31.593Z,92186.41
2019-02-07T16:51:03.000Z,92194.52
2019-02-07T16:53:34.835Z,92191.58
2019-02-07T16:56:08.455Z,92194.63
2019-02-07T16:58:39.694Z,92190.53
2019-02-07T17:01:11.303Z,92198.50
2019-02-07T17:03:42.799Z,92204.33
2019-02-07T17:06:14.612Z,92200.85
2019-02-07T17:08:46.148Z,92196.66
2019-02-07T17:11:17.227Z,92198.50
2019-02-07T17:13:49.607Z,92194.72
2019-02-07T17:16:25.014Z,92202.80
2019-02-07T17:18:56.391Z,92197.69
2019-02-07T17:21:27.647Z,92202.80
2019-02-07T17:24:00.648Z,92202.17
2019-02-07T17:26:31.797Z,92197.78
2019-02-07T17:29:04.052Z,92196.65
2019-02-07T17:31:35.263Z,92195.23
2019-02-07T17:34:09.714Z,92201.27
2019-02-07T17:36:56.767Z,92198.70
2019-02-07T17:39:30.644Z,92200.45
2019-02-07T17:42:02.253Z,92198.30
2019-02-07T17:44:33.973Z,92200.55
2019-02-07T17:47:05.099Z,92200.45
2019-02-07T17:49:36.694Z,92192.58
2019-02-07T17:52:10.109Z,92188.08
2019-02-07T17:54:41.126Z,92182.35
2019-02-07T17:57:12.501Z,92182.89
2019-02-07T17:59:45.482Z,92182.05
2019-02-07T18:02:17.509Z,92174.52
2019-02-07T18:04:48.747Z,92178.28
2019-02-07T18:07:20.085Z,92174.41
2019-02-07T18:09:51.291Z,92169.40
2019-02-07T18:12:22.884Z,92172.97
2019-02-07T18:14:57.441Z,92163.97
2019-02-07T18:17:35.239Z,92158.48
2019-02-07T18:20:08.936Z,92165.37
2019-02-07T18:25:43.142Z,92164.06
2019-02-07T18:28:21.680Z,92166.61
2019-02-07T18:30:53.318Z,92162.53
2019-02-07T18:33:24.390Z,92161.41
2019-02-07T18:35:56.047Z,92156.70
2019-02-07T18:38:27.635Z,92154.16
2019-02-07T18:41:00.156Z,92157.13
2019-02-07T18:43:34.661Z,92156.80
2019-02-07T18:46:07.897Z,92150.11
2019-02-07T18:48:39.143Z,92156.88
2019-02-07T18:51:14.642Z,92154.16
2019-02-07T18:53:47.427Z,92158.25
2019-02-07T18:56:18.510Z,92162.84
2019-02-07T18:58:50.111Z,92160.39
2019-02-07T19:01:21.685Z,92168.97
2019-02-07T19:03:52.780Z,92169.89
2019-02-07T19:06:24.108Z,92173.98
2019-02-07T19:08:56.086Z,92178.90
2019-02-07T19:11:27.525Z,92171.65
2019-02-07T19:13:59.321Z,92171.23
2019-02-07T19:16:32.370Z,92171.34
2019-02-07T19:19:03.957Z,92168.48
2019-02-07T19:21:35.022Z,92172.95
2019-02-07T19:24:06.602Z,92168.08
2019-02-07T19:26:38.176Z,92170.02
2019-02-07T19:29:17.141Z,92172.27
2019-02-07T19:31:49.836Z,92173.99
2019-02-07T19:34:22.217Z,92169.41
2019-02-07T19:36:53.855Z,92164.88
2019-02-07T19:39:26.434Z,92169.27
2019-02-07T19:41:58.250Z,92166.10
2019-02-07T19:44:30.226Z,92161.91
2019-02-07T19:47:06.813Z,92163.34
2019-02-07T19:49:38.451Z,92156.32
2019-02-07T19:52:10.473Z,92157.95
2019-02-07T19:54:42.166Z,92151.52
2019-02-07T19:57:13.757Z,92151.11
2019-02-07T19:59:46.669Z,92155.19
2019-02-07T20:02:18.236Z,92153.11
2019-02-07T20:04:50.131Z,92145.69
2019-02-07T20:07:26.224Z,92141.45
2019-02-07T20:09:58.202Z,92140.31
2019-02-07T20:12:29.664Z,92133.79
2019-02-07T20:15:01.226Z,92131.42
2019-02-07T20:17:33.496Z,92129.03
2019-02-07T20:20:05.918Z,92127.20
2019-02-07T20:22:37.426Z,92121.77
2019-02-07T20:25:09.782Z,92121.13
2019-02-07T20:27:40.893Z,92119.70
2019-02-07T20:30:18.661Z,92120.27
2019-02-07T20:32:50.474Z,92126.77
2019-02-07T20:35:21.699Z,92124.23
2019-02-07T20:37:52.842Z,92130.68
2019-02-07T20:40:28.105Z,92128.42
2019-02-07T20:42:59.884Z,92133.31
2019-02-07T20:45:30.919Z,92129.49
2019-02-07T20:48:03.066Z,92134.98
2019-02-07T20:50:34.478Z,92123.27
2019-02-07T20:53:05.995Z,92121.03
2019-02-07T20:55:37.190Z,92121.18
2019-02-07T20:58:09.822Z,92121.53
2019-02-07T21:00:59.876Z,92122.65
2019-02-07T21:03:48.949Z,92125.77
2019-02-07T21:06:38.707Z,92123.98
2019-02-07T21:09:29.037Z,92120.61
2019-02-07T21:12:19.874Z,92117.94
2019-02-07T21:15:18.522Z,92114.25
2019-02-07T21:18:04.140Z,92116.05
2019-02-07T21:20:53.906Z,92118.03
2019-02-07T21:23:42.941Z,92122.43
2019-02-07T21:26:37.578Z,92124.86
2019-02-07T21:29:27.400Z,92123.53
2019-02-07T21:32:17.111Z,92121.20
2019-02-07T21:35:07.667Z,92125.79
2019-02-07T21:37:57.100Z,92120.84
2019-02-07T21:40:47.120Z,92128.27
2019-02-07T21:43:37.247Z,92135.02
2019-02-07T21:46:28.015Z,92135.38
2019-02-07T21:49:18.487Z,92133.28
2019-02-07T21:52:07.920Z,92133.91
2019-02-07T21:55:02.363Z,92134.78
2019-02-07T21:57:53.010Z,92133.77
2019-02-07T22:00:44.994Z,92137.48
2019-02-07T22:03:34.553Z,92138.80
2019-02-07T22:06:24.011Z,92141.13
2019-02-07T22:09:14.599Z,92145.25
2019-02-07T22:12:04.006Z,92149.39
2019-02-07T22:14:53.470Z,92147.02
2019-02-07T22:17:43.678Z,92145.31
2019-02-07T22:20:34.150Z,92152.30
2019-02-07T22:23:24.033Z,92147.38
2019-02-07T22:26:13.740Z,92147.12
2019-02-07T22:29:03.849Z,92144.77
2019-02-07T22:31:53.297Z,92154.25
2019-02-07T22:34:42.807Z,92154.91
2019-02-07T22:37:32.353Z,92151.25
2019-02-07T22:40:23.047Z,92154.33
2019-02-07T22:43:13.037Z,92144.25
2019-02-07T22:46:02.839Z,92143.50
2019-02-07T22:48:52.327Z,92134.49
2019-02-07T22:51:42.218Z,92136.14
2019-02-07T22:54:31.723Z,92132.52
2019-02-07T22:57:21.899Z,92133.89
2019-02-07T23:00:52.843Z,92138.30
2019-02-07T23:03:53.881Z,92129.76
2019-02-07T23:06:42.857Z,92127.89
2019-02-07T23:09:33.207Z,92127.13
2019-02-07T23:12:22.567Z,92125.79
2019-02-07T23:15:13.113Z,92119.24
2019-02-07T23:18:02.626Z,92120.11
2019-02-07T23:20:52.104Z,92121.73
2019-02-07T23:23:42.299Z,92121.71
2019-02-07T23:26:31.767Z,92115.09
2019-02-07T23:29:21.241Z,92117.63
2019-02-07T23:32:11.774Z,92116.20
2019-02-07T23:35:01.355Z,92115.42
2019-02-07T23:37:51.302Z,92115.09
2019-02-07T23:40:40.608Z,92117.19
2019-02-07T23:43:30.075Z,92118.68
2019-02-07T23:46:19.485Z,92111.23
2019-02-07T23:49:09.044Z,92112.23
2019-02-07T23:51:58.677Z,92112.00
2019-02-07T23:54:48.635Z,92104.62
2019-02-07T23:57:38.171Z,92107.82
